This is the latest recevied weather packets stored in our database for station/object OK1VCF-8. If no packets are shown the sender has not sent any weather packets the latest 10 day(s).
| Time | Temp. | Humidity | Pressure | Rain* | Wind** | Luminosity | Snow |
|---|---|---|---|---|---|---|---|
| 1777942124 | 15.56° C | 74% | 1011.2 hPa | - | - | - | - |
| 1777941641 | 15.56° C | 75% | 1010.6 hPa | - | - | - | - |
| 1777941155 | 15.56° C | 74% | 1010.8 hPa | - | - | - | - |
| 1777940661 | 15.56° C | 74% | 1011 hPa | - | - | - | - |
| 1777940166 | 15.56° C | 74% | 1010.9 hPa | - | - | - | - |
| 1777939481 | 15° C | 76% | 1011.2 hPa | - | - | - | - |
| 1777938990 | 14.44° C | 82% | 1011 hPa | - | - | - | - |
| 1777938501 | 13.89° C | 86% | 1011.6 hPa | - | - | - | - |
| 1777938046 | 14.44° C | 84% | 1010.8 hPa | - | - | - | - |
| 1777937591 | 13.89° C | 86% | 1011 hPa | - | - | - | - |
| 1777937139 | 13.33° C | 88% | 1011.3 hPa | - | - | - | - |
| 1777936692 | 13.33° C | 88% | 1011.8 hPa | - | - | - | - |
| 1777936255 | 13.89° C | 86% | 1012.2 hPa | - | - | - | - |
| 1777935816 | 14.44° C | 83% | 1012.2 hPa | - | - | - | - |
| 1777935379 | 15.56° C | 78% | 1012.8 hPa | - | - | - | - |
| 1777934940 | 15.56° C | 75% | 1012.8 hPa | - | - | - | - |
| 1777934504 | 14.44° C | 74% | 1013 hPa | - | - | - | - |
| 1777934067 | 15° C | 74% | 1013.2 hPa | - | - | - | - |
| 1777932603 | 17.78° C | 59% | 1013.2 hPa | - | - | - | - |
| 1777932166 | 17.78° C | 57% | 1012.4 hPa | - | - | - | - |
| 1777931727 | 17.78° C | 59% | 1012.2 hPa | - | - | - | - |
| 1777931288 | 17.78° C | 60% | 1012.1 hPa | - | - | - | - |
| 1777930850 | 17.78° C | 60% | 1012.2 hPa | - | - | - | - |
| 1777930412 | 17.78° C | 58% | 1012.8 hPa | - | - | - | - |
| 1777929975 | 17.78° C | 56% | 1012.4 hPa | - | - | - | - |
* Rain since midnight (hover to see other rain measurements)
** Current wind speed in m/s (hover to see current wind gust speed)